sensor_id;sensor_type;location;lat;lon;timestamp;pressure;altitude;pressure_sealevel;temperature;humidity
76794;BME280;65745;50.278;18.192;2023-04-03T00:00:38;100259.00;;;3.25;75.59
76794;BME280;65745;50.278;18.192;2023-04-03T00:03:19;100261.02;;;3.22;75.34
76794;BME280;65745;50.278;18.192;2023-04-03T00:05:51;100260.95;;;3.17;75.46
76794;BME280;65745;50.278;18.192;2023-04-03T00:08:24;100263.86;;;3.15;75.36
76794;BME280;65745;50.278;18.192;2023-04-03T00:10:56;100265.60;;;3.15;75.90
76794;BME280;65745;50.278;18.192;2023-04-03T00:13:28;100269.32;;;3.18;76.21
76794;BME280;65745;50.278;18.192;2023-04-03T00:16:00;100267.08;;;3.20;76.13
76794;BME280;65745;50.278;18.192;2023-04-03T00:18:34;100268.09;;;3.23;75.95
76794;BME280;65745;50.278;18.192;2023-04-03T00:21:07;100270.22;;;3.25;75.44
76794;BME280;65745;50.278;18.192;2023-04-03T00:23:40;100269.89;;;3.22;75.05
76794;BME280;65745;50.278;18.192;2023-04-03T00:26:12;100266.52;;;3.20;75.09
76794;BME280;65745;50.278;18.192;2023-04-03T00:28:44;100271.80;;;3.13;74.92
76794;BME280;65745;50.278;18.192;2023-04-03T00:31:17;100272.27;;;3.10;74.80
76794;BME280;65745;50.278;18.192;2023-04-03T00:33:49;100272.52;;;3.05;74.78
76794;BME280;65745;50.278;18.192;2023-04-03T00:36:22;100272.55;;;3.03;75.06
76794;BME280;65745;50.278;18.192;2023-04-03T00:38:54;100266.29;;;3.03;75.11
76794;BME280;65745;50.278;18.192;2023-04-03T00:41:26;100267.70;;;3.04;75.38
76794;BME280;65745;50.278;18.192;2023-04-03T00:43:59;100268.45;;;3.03;75.03
76794;BME280;65745;50.278;18.192;2023-04-03T00:46:31;100270.20;;;3.00;74.79
76794;BME280;65745;50.278;18.192;2023-04-03T00:49:03;100269.36;;;2.97;74.74
76794;BME280;65745;50.278;18.192;2023-04-03T00:51:36;100273.93;;;2.93;74.74
76794;BME280;65745;50.278;18.192;2023-04-03T00:54:09;100273.98;;;2.91;74.64
76794;BME280;65745;50.278;18.192;2023-04-03T00:56:41;100277.96;;;2.90;74.52
76794;BME280;65745;50.278;18.192;2023-04-03T00:59:17;100277.92;;;2.86;74.66
76794;BME280;65745;50.278;18.192;2023-04-03T01:01:53;100282.14;;;2.82;74.61
76794;BME280;65745;50.278;18.192;2023-04-03T01:04:31;100284.35;;;2.79;74.73
76794;BME280;65745;50.278;18.192;2023-04-03T01:07:06;100283.64;;;2.76;74.69
76794;BME280;65745;50.278;18.192;2023-04-03T01:09:40;100286.63;;;2.75;74.78
76794;BME280;65745;50.278;18.192;2023-04-03T01:12:18;100285.66;;;2.73;75.08
76794;BME280;65745;50.278;18.192;2023-04-03T01:14:54;100288.27;;;2.74;75.00
76794;BME280;65745;50.278;18.192;2023-04-03T01:17:32;100287.67;;;2.72;75.01
76794;BME280;65745;50.278;18.192;2023-04-03T01:20:24;100292.08;;;2.69;75.10
76794;BME280;65745;50.278;18.192;2023-04-03T01:23:27;100292.84;;;2.67;75.33
76794;BME280;65745;50.278;18.192;2023-04-03T01:26:03;100287.77;;;2.65;75.07
76794;BME280;65745;50.278;18.192;2023-04-03T01:28:37;100285.80;;;2.60;75.02
76794;BME280;65745;50.278;18.192;2023-04-03T01:31:16;100288.43;;;2.56;75.11
76794;BME280;65745;50.278;18.192;2023-04-03T01:33:51;100293.38;;;2.53;75.43
76794;BME280;65745;50.278;18.192;2023-04-03T01:36:25;100297.91;;;2.52;75.48
76794;BME280;65745;50.278;18.192;2023-04-03T01:38:59;100298.94;;;2.52;75.37
76794;BME280;65745;50.278;18.192;2023-04-03T01:41:32;100297.17;;;2.48;75.46
76794;BME280;65745;50.278;18.192;2023-04-03T01:44:11;100297.10;;;2.47;75.33
76794;BME280;65745;50.278;18.192;2023-04-03T01:46:44;100297.23;;;2.46;75.05
76794;BME280;65745;50.278;18.192;2023-04-03T01:49:16;100293.80;;;2.43;75.08
76794;BME280;65745;50.278;18.192;2023-04-03T01:51:48;100292.29;;;2.37;75.22
76794;BME280;65745;50.278;18.192;2023-04-03T01:54:20;100297.16;;;2.36;74.97
76794;BME280;65745;50.278;18.192;2023-04-03T01:56:52;100300.73;;;2.34;74.76
76794;BME280;65745;50.278;18.192;2023-04-03T01:59:24;100298.58;;;2.32;74.76
76794;BME280;65745;50.278;18.192;2023-04-03T02:01:56;100303.20;;;2.26;74.40
76794;BME280;65745;50.278;18.192;2023-04-03T02:04:28;100302.67;;;2.24;74.08
76794;BME280;65745;50.278;18.192;2023-04-03T02:07:01;100306.56;;;2.21;74.39
76794;BME280;65745;50.278;18.192;2023-04-03T02:09:33;100303.69;;;2.21;74.71
76794;BME280;65745;50.278;18.192;2023-04-03T02:12:06;100305.27;;;2.19;74.57
76794;BME280;65745;50.278;18.192;2023-04-03T02:14:38;100307.52;;;2.19;74.88
76794;BME280;65745;50.278;18.192;2023-04-03T02:17:15;100312.44;;;2.22;74.99
76794;BME280;65745;50.278;18.192;2023-04-03T02:19:47;100312.43;;;2.22;74.46
76794;BME280;65745;50.278;18.192;2023-04-03T02:22:19;100316.63;;;2.18;73.47
76794;BME280;65745;50.278;18.192;2023-04-03T02:24:51;100314.34;;;2.17;73.77
76794;BME280;65745;50.278;18.192;2023-04-03T02:27:23;100318.56;;;2.10;73.25
76794;BME280;65745;50.278;18.192;2023-04-03T02:29:55;100319.48;;;2.06;73.49
76794;BME280;65745;50.278;18.192;2023-04-03T02:32:28;100319.55;;;1.96;73.41
76794;BME280;65745;50.278;18.192;2023-04-03T02:35:00;100325.01;;;1.88;73.26
76794;BME280;65745;50.278;18.192;2023-04-03T02:37:33;100325.36;;;1.80;73.33
76794;BME280;65745;50.278;18.192;2023-04-03T02:40:07;100331.48;;;1.72;73.44
76794;BME280;65745;50.278;18.192;2023-04-03T02:42:40;100330.85;;;1.62;73.11
76794;BME280;65745;50.278;18.192;2023-04-03T02:45:12;100333.75;;;1.54;73.31
76794;BME280;65745;50.278;18.192;2023-04-03T02:47:45;100332.66;;;1.45;73.76
76794;BME280;65745;50.278;18.192;2023-04-03T02:50:17;100340.44;;;1.41;74.39
76794;BME280;65745;50.278;18.192;2023-04-03T02:52:49;100342.54;;;1.34;74.46
76794;BME280;65745;50.278;18.192;2023-04-03T02:55:21;100345.56;;;1.32;74.48
76794;BME280;65745;50.278;18.192;2023-04-03T02:57:54;100345.64;;;1.30;73.93
76794;BME280;65745;50.278;18.192;2023-04-03T03:00:26;100346.00;;;1.22;73.97
76794;BME280;65745;50.278;18.192;2023-04-03T03:02:58;100348.27;;;1.12;73.81
76794;BME280;65745;50.278;18.192;2023-04-03T03:05:31;100347.23;;;1.02;74.02
76794;BME280;65745;50.278;18.192;2023-04-03T03:08:03;100348.80;;;0.95;74.07
76794;BME280;65745;50.278;18.192;2023-04-03T03:10:35;100348.53;;;0.88;73.79
76794;BME280;65745;50.278;18.192;2023-04-03T03:13:08;100351.86;;;0.82;74.08
76794;BME280;65745;50.278;18.192;2023-04-03T03:15:40;100356.70;;;0.76;74.07
76794;BME280;65745;50.278;18.192;2023-04-03T03:18:12;100356.61;;;0.69;74.17
76794;BME280;65745;50.278;18.192;2023-04-03T03:20:44;100358.59;;;0.66;74.54
76794;BME280;65745;50.278;18.192;2023-04-03T03:23:16;100360.24;;;0.65;74.96
76794;BME280;65745;50.278;18.192;2023-04-03T03:25:49;100362.10;;;0.68;75.32
76794;BME280;65745;50.278;18.192;2023-04-03T03:28:21;100365.14;;;0.70;75.31
76794;BME280;65745;50.278;18.192;2023-04-03T03:30:53;100362.34;;;0.71;74.83
76794;BME280;65745;50.278;18.192;2023-04-03T03:33:26;100365.76;;;0.69;74.58
76794;BME280;65745;50.278;18.192;2023-04-03T03:35:59;100364.58;;;0.64;74.50
76794;BME280;65745;50.278;18.192;2023-04-03T03:38:32;100363.45;;;0.63;74.18
76794;BME280;65745;50.278;18.192;2023-04-03T03:41:04;100365.93;;;0.59;74.35
76794;BME280;65745;50.278;18.192;2023-04-03T03:43:37;100367.48;;;0.57;74.37
76794;BME280;65745;50.278;18.192;2023-04-03T03:46:10;100369.89;;;0.52;74.38
76794;BME280;65745;50.278;18.192;2023-04-03T03:48:42;100370.06;;;0.50;74.29
76794;BME280;65745;50.278;18.192;2023-04-03T03:51:14;100366.70;;;0.48;74.35
76794;BME280;65745;50.278;18.192;2023-04-03T03:53:47;100366.80;;;0.44;74.76
76794;BME280;65745;50.278;18.192;2023-04-03T03:56:21;100368.13;;;0.41;75.14
76794;BME280;65745;50.278;18.192;2023-04-03T03:58:53;100372.30;;;0.43;75.50
76794;BME280;65745;50.278;18.192;2023-04-03T04:01:27;100376.21;;;0.43;75.64
76794;BME280;65745;50.278;18.192;2023-04-03T04:04:01;100376.92;;;0.41;75.38
76794;BME280;65745;50.278;18.192;2023-04-03T04:06:34;100375.77;;;0.41;74.76
76794;BME280;65745;50.278;18.192;2023-04-03T04:09:08;100377.72;;;0.35;74.89
76794;BME280;65745;50.278;18.192;2023-04-03T04:11:40;100383.23;;;0.31;74.77
76794;BME280;65745;50.278;18.192;2023-04-03T04:14:13;100387.45;;;0.29;74.95
76794;BME280;65745;50.278;18.192;2023-04-03T04:16:46;100384.44;;;0.24;75.03
76794;BME280;65745;50.278;18.192;2023-04-03T04:19:22;100388.03;;;0.20;75.01
76794;BME280;65745;50.278;18.192;2023-04-03T04:21:54;100387.02;;;0.15;74.76
76794;BME280;65745;50.278;18.192;2023-04-03T04:24:27;100394.90;;;0.12;75.11
76794;BME280;65745;50.278;18.192;2023-04-03T04:26:59;100397.29;;;0.12;75.69
76794;BME280;65745;50.278;18.192;2023-04-03T04:29:33;100399.70;;;0.15;75.63
76794;BME280;65745;50.278;18.192;2023-04-03T04:32:08;100404.36;;;0.16;75.78
76794;BME280;65745;50.278;18.192;2023-04-03T04:34:40;100405.83;;;0.18;75.77
76794;BME280;65745;50.278;18.192;2023-04-03T04:37:13;100402.77;;;0.18;75.40
76794;BME280;65745;50.278;18.192;2023-04-03T04:39:45;100408.80;;;0.11;75.39
76794;BME280;65745;50.278;18.192;2023-04-03T04:42:17;100413.59;;;0.08;75.13
76794;BME280;65745;50.278;18.192;2023-04-03T04:44:50;100413.02;;;0.05;75.05
76794;BME280;65745;50.278;18.192;2023-04-03T04:47:23;100420.31;;;-0.01;75.39
76794;BME280;65745;50.278;18.192;2023-04-03T04:49:55;100424.76;;;-0.05;75.16
76794;BME280;65745;50.278;18.192;2023-04-03T04:52:28;100424.02;;;-0.08;75.54
76794;BME280;65745;50.278;18.192;2023-04-03T04:55:00;100427.34;;;-0.09;75.91
76794;BME280;65745;50.278;18.192;2023-04-03T04:57:33;100432.74;;;-0.07;76.02
76794;BME280;65745;50.278;18.192;2023-04-03T05:00:09;100434.81;;;-0.04;76.12
76794;BME280;65745;50.278;18.192;2023-04-03T05:02:41;100440.05;;;-0.06;75.80
76794;BME280;65745;50.278;18.192;2023-04-03T05:05:14;100442.04;;;-0.05;75.76
76794;BME280;65745;50.278;18.192;2023-04-03T05:07:46;100441.12;;;-0.06;75.73
76794;BME280;65745;50.278;18.192;2023-04-03T05:10:19;100447.06;;;-0.03;75.54
76794;BME280;65745;50.278;18.192;2023-04-03T05:12:51;100450.66;;;0.03;75.54
76794;BME280;65745;50.278;18.192;2023-04-03T05:15:23;100450.77;;;0.09;75.31
76794;BME280;65745;50.278;18.192;2023-04-03T05:17:56;100451.91;;;0.13;75.51
76794;BME280;65745;50.278;18.192;2023-04-03T05:20:28;100455.33;;;0.21;75.33
76794;BME280;65745;50.278;18.192;2023-04-03T05:23:01;100455.63;;;0.28;75.34
76794;BME280;65745;50.278;18.192;2023-04-03T05:25:33;100458.63;;;0.39;75.84
76794;BME280;65745;50.278;18.192;2023-04-03T05:28:08;100457.71;;;0.51;75.65
76794;BME280;65745;50.278;18.192;2023-04-03T05:30:41;100460.98;;;0.61;75.76
76794;BME280;65745;50.278;18.192;2023-04-03T05:33:13;100462.15;;;0.73;75.52
76794;BME280;65745;50.278;18.192;2023-04-03T05:35:50;100459.80;;;0.83;74.84
76794;BME280;65745;50.278;18.192;2023-04-03T05:38:26;100462.19;;;0.94;74.48
76794;BME280;65745;50.278;18.192;2023-04-03T05:41:00;100463.11;;;1.00;74.34
76794;BME280;65745;50.278;18.192;2023-04-03T05:43:33;100463.70;;;1.04;74.08
76794;BME280;65745;50.278;18.192;2023-04-03T05:46:12;100465.63;;;1.10;73.85
76794;BME280;65745;50.278;18.192;2023-04-03T05:48:49;100469.19;;;1.15;73.91
76794;BME280;65745;50.278;18.192;2023-04-03T05:51:33;100468.55;;;1.23;73.84
76794;BME280;65745;50.278;18.192;2023-04-03T05:54:23;100472.38;;;1.32;73.75
76794;BME280;65745;50.278;18.192;2023-04-03T05:56:59;100469.00;;;1.40;74.06
76794;BME280;65745;50.278;18.192;2023-04-03T05:59:32;100469.52;;;1.51;74.03
76794;BME280;65745;50.278;18.192;2023-04-03T06:02:04;100472.98;;;1.59;74.13
76794;BME280;65745;50.278;18.192;2023-04-03T06:04:37;100473.68;;;1.68;73.53
76794;BME280;65745;50.278;18.192;2023-04-03T06:07:13;100467.63;;;1.74;72.97
76794;BME280;65745;50.278;18.192;2023-04-03T06:09:46;100467.11;;;1.82;72.57
76794;BME280;65745;50.278;18.192;2023-04-03T06:12:19;100468.67;;;1.91;71.97
76794;BME280;65745;50.278;18.192;2023-04-03T06:14:51;100471.79;;;1.91;71.98
76794;BME280;65745;50.278;18.192;2023-04-03T06:17:24;100475.16;;;1.99;72.10
76794;BME280;65745;50.278;18.192;2023-04-03T06:19:57;100478.27;;;2.08;71.58
76794;BME280;65745;50.278;18.192;2023-04-03T06:22:30;100480.08;;;2.12;71.57
76794;BME280;65745;50.278;18.192;2023-04-03T06:25:05;100483.20;;;2.22;71.19
76794;BME280;65745;50.278;18.192;2023-04-03T06:27:38;100480.24;;;2.29;71.74
76794;BME280;65745;50.278;18.192;2023-04-03T06:30:12;100486.46;;;2.38;71.58
76794;BME280;65745;50.278;18.192;2023-04-03T06:32:44;100489.30;;;2.54;71.76
76794;BME280;65745;50.278;18.192;2023-04-03T06:35:17;100488.69;;;2.72;72.01
76794;BME280;65745;50.278;18.192;2023-04-03T06:37:49;100483.26;;;2.89;70.17
76794;BME280;65745;50.278;18.192;2023-04-03T06:40:24;100488.35;;;3.00;69.14
76794;BME280;65745;50.278;18.192;2023-04-03T06:42:57;100494.40;;;3.16;69.40
76794;BME280;65745;50.278;18.192;2023-04-03T06:45:29;100490.09;;;3.27;68.76
76794;BME280;65745;50.278;18.192;2023-04-03T06:48:02;100497.27;;;3.39;69.06
76794;BME280;65745;50.278;18.192;2023-04-03T06:50:34;100498.14;;;3.51;68.09
76794;BME280;65745;50.278;18.192;2023-04-03T06:53:06;100499.17;;;3.57;67.88
76794;BME280;65745;50.278;18.192;2023-04-03T06:55:39;100499.88;;;3.70;67.92
76794;BME280;65745;50.278;18.192;2023-04-03T06:58:12;100500.20;;;3.69;67.25
76794;BME280;65745;50.278;18.192;2023-04-03T07:00:44;100501.66;;;3.77;67.04
76794;BME280;65745;50.278;18.192;2023-04-03T07:03:18;100501.54;;;3.84;66.99
76794;BME280;65745;50.278;18.192;2023-04-03T07:05:52;100504.70;;;3.92;66.56
76794;BME280;65745;50.278;18.192;2023-04-03T07:08:25;100510.63;;;3.97;66.60
76794;BME280;65745;50.278;18.192;2023-04-03T07:10:57;100512.79;;;4.05;65.51
76794;BME280;65745;50.278;18.192;2023-04-03T07:13:29;100513.34;;;4.12;65.96
76794;BME280;65745;50.278;18.192;2023-04-03T07:16:01;100516.26;;;4.19;66.30
76794;BME280;65745;50.278;18.192;2023-04-03T07:18:35;100513.93;;;4.32;65.81
76794;BME280;65745;50.278;18.192;2023-04-03T07:21:08;100515.23;;;4.43;66.35
76794;BME280;65745;50.278;18.192;2023-04-03T07:23:40;100518.43;;;4.52;65.19
76794;BME280;65745;50.278;18.192;2023-04-03T07:26:12;100518.25;;;4.64;65.29
76794;BME280;65745;50.278;18.192;2023-04-03T07:28:44;100522.20;;;4.81;65.51
76794;BME280;65745;50.278;18.192;2023-04-03T07:31:18;100524.84;;;4.96;64.34
76794;BME280;65745;50.278;18.192;2023-04-03T07:33:51;100527.23;;;5.09;63.91
76794;BME280;65745;50.278;18.192;2023-04-03T07:36:23;100530.27;;;5.18;63.71
76794;BME280;65745;50.278;18.192;2023-04-03T07:38:55;100526.88;;;5.29;63.29
76794;BME280;65745;50.278;18.192;2023-04-03T07:41:28;100528.25;;;5.38;63.80
76794;BME280;65745;50.278;18.192;2023-04-03T07:44:01;100530.65;;;5.59;63.63
76794;BME280;65745;50.278;18.192;2023-04-03T07:46:33;100529.48;;;5.74;61.96
76794;BME280;65745;50.278;18.192;2023-04-03T07:49:05;100528.90;;;5.82;62.65
76794;BME280;65745;50.278;18.192;2023-04-03T07:51:37;100526.05;;;5.90;61.98
76794;BME280;65745;50.278;18.192;2023-04-03T07:54:10;100527.81;;;5.94;59.90
76794;BME280;65745;50.278;18.192;2023-04-03T07:56:43;100530.23;;;5.95;61.03
76794;BME280;65745;50.278;18.192;2023-04-03T07:59:15;100536.59;;;5.96;60.60
76794;BME280;65745;50.278;18.192;2023-04-03T08:01:47;100537.04;;;6.02;61.31
76794;BME280;65745;50.278;18.192;2023-04-03T08:04:20;100539.66;;;6.13;60.76
76794;BME280;65745;50.278;18.192;2023-04-03T08:06:52;100537.70;;;6.23;59.52
76794;BME280;65745;50.278;18.192;2023-04-03T08:09:24;100533.98;;;6.19;59.36
76794;BME280;65745;50.278;18.192;2023-04-03T08:11:57;100534.30;;;6.15;58.93
76794;BME280;65745;50.278;18.192;2023-04-03T08:14:31;100536.04;;;6.16;58.67
76794;BME280;65745;50.278;18.192;2023-04-03T08:17:05;100537.75;;;6.20;58.53
76794;BME280;65745;50.278;18.192;2023-04-03T08:19:40;100532.95;;;6.16;56.67
76794;BME280;65745;50.278;18.192;2023-04-03T08:22:12;100532.95;;;6.12;57.65
76794;BME280;65745;50.278;18.192;2023-04-03T08:24:45;100530.70;;;6.19;57.20
76794;BME280;65745;50.278;18.192;2023-04-03T08:27:29;100531.91;;;6.30;57.31
76794;BME280;65745;50.278;18.192;2023-04-03T08:30:05;100532.16;;;6.28;56.18
76794;BME280;65745;50.278;18.192;2023-04-03T08:32:37;100535.73;;;6.27;55.86
76794;BME280;65745;50.278;18.192;2023-04-03T08:35:10;100534.96;;;6.33;56.03
76794;BME280;65745;50.278;18.192;2023-04-03T08:37:43;100536.92;;;6.35;56.05
76794;BME280;65745;50.278;18.192;2023-04-03T08:40:16;100542.60;;;6.35;56.30
76794;BME280;65745;50.278;18.192;2023-04-03T08:42:56;100535.59;;;6.43;55.57
76794;BME280;65745;50.278;18.192;2023-04-03T08:45:41;100539.75;;;6.55;55.58
76794;BME280;65745;50.278;18.192;2023-04-03T08:48:19;100542.14;;;6.55;54.92
76794;BME280;65745;50.278;18.192;2023-04-03T08:50:55;100539.59;;;6.59;54.92
76794;BME280;65745;50.278;18.192;2023-04-03T08:53:28;100540.96;;;6.63;54.08
76794;BME280;65745;50.278;18.192;2023-04-03T08:56:07;100541.12;;;6.77;54.16
76794;BME280;65745;50.278;18.192;2023-04-03T08:58:44;100540.10;;;6.77;53.96
76794;BME280;65745;50.278;18.192;2023-04-03T09:01:23;100540.60;;;6.70;53.00
76794;BME280;65745;50.278;18.192;2023-04-03T09:03:57;100537.23;;;6.78;52.89
76794;BME280;65745;50.278;18.192;2023-04-03T09:06:31;100529.83;;;7.04;53.79
76794;BME280;65745;50.278;18.192;2023-04-03T09:09:12;100526.54;;;7.31;53.32
76794;BME280;65745;50.278;18.192;2023-04-03T09:11:53;100529.74;;;7.54;51.67
76794;BME280;65745;50.278;18.192;2023-04-03T09:14:35;100531.36;;;7.28;51.15
76794;BME280;65745;50.278;18.192;2023-04-03T09:17:17;100529.44;;;6.96;51.65
76794;BME280;65745;50.278;18.192;2023-04-03T09:19:58;100536.63;;;6.58;51.47
76794;BME280;65745;50.278;18.192;2023-04-03T09:22:35;100533.23;;;6.33;52.03
76794;BME280;65745;50.278;18.192;2023-04-03T09:25:23;100533.83;;;6.02;50.47
76794;BME280;65745;50.278;18.192;2023-04-03T09:27:55;100541.76;;;5.73;48.94
76794;BME280;65745;50.278;18.192;2023-04-03T09:30:29;100551.36;;;5.67;50.87
76794;BME280;65745;50.278;18.192;2023-04-03T09:33:01;100552.65;;;5.72;50.97
76794;BME280;65745;50.278;18.192;2023-04-03T09:35:34;100543.15;;;5.94;50.71
76794;BME280;65745;50.278;18.192;2023-04-03T09:38:20;100540.98;;;6.41;51.69
76794;BME280;65745;50.278;18.192;2023-04-03T09:41:05;100537.05;;;6.90;50.63
76794;BME280;65745;50.278;18.192;2023-04-03T09:43:40;100541.09;;;7.42;51.22
76794;BME280;65745;50.278;18.192;2023-04-03T09:46:32;100541.61;;;7.72;50.22
76794;BME280;65745;50.278;18.192;2023-04-03T09:49:08;100542.17;;;7.56;49.08
76794;BME280;65745;50.278;18.192;2023-04-03T09:51:43;100546.07;;;7.35;49.73
76794;BME280;65745;50.278;18.192;2023-04-03T09:54:41;100539.89;;;7.07;48.31
76794;BME280;65745;50.278;18.192;2023-04-03T09:57:14;100544.37;;;6.77;48.72
76794;BME280;65745;50.278;18.192;2023-04-03T09:59:56;100548.21;;;6.68;49.51
76794;BME280;65745;50.278;18.192;2023-04-03T10:02:38;100549.98;;;6.36;47.60
76794;BME280;65745;50.278;18.192;2023-04-03T10:05:29;100555.22;;;6.27;48.62
76794;BME280;65745;50.278;18.192;2023-04-03T10:08:20;100549.75;;;6.46;49.06
76794;BME280;65745;50.278;18.192;2023-04-03T10:11:17;100547.19;;;6.83;48.21
76794;BME280;65745;50.278;18.192;2023-04-03T10:13:55;100547.46;;;7.32;48.56
76794;BME280;65745;50.278;18.192;2023-04-03T10:16:36;100549.59;;;7.82;47.87
76794;BME280;65745;50.278;18.192;2023-04-03T10:19:40;100552.77;;;8.05;47.74
76794;BME280;65745;50.278;18.192;2023-04-03T10:22:21;100543.31;;;8.51;47.33
76794;BME280;65745;50.278;18.192;2023-04-03T10:25:05;100533.46;;;8.86;45.54
76794;BME280;65745;50.278;18.192;2023-04-03T10:27:51;100533.89;;;9.31;46.28
76794;BME280;65745;50.278;18.192;2023-04-03T10:30:34;100535.04;;;9.85;45.64
76794;BME280;65745;50.278;18.192;2023-04-03T10:33:19;100537.67;;;10.34;45.07
76794;BME280;65745;50.278;18.192;2023-04-03T10:36:05;100541.83;;;10.24;43.06
76794;BME280;65745;50.278;18.192;2023-04-03T10:38:46;100533.19;;;9.97;43.21
76794;BME280;65745;50.278;18.192;2023-04-03T10:41:28;100532.89;;;9.57;44.22
76794;BME280;65745;50.278;18.192;2023-04-03T10:44:15;100539.49;;;9.10;42.75
76794;BME280;65745;50.278;18.192;2023-04-03T10:46:52;100544.59;;;8.67;44.08
76794;BME280;65745;50.278;18.192;2023-04-03T10:49:35;100534.48;;;8.81;42.92
76794;BME280;65745;50.278;18.192;2023-04-03T10:52:26;100532.14;;;9.02;42.89
76794;BME280;65745;50.278;18.192;2023-04-03T10:55:05;100534.06;;;9.31;42.83
76794;BME280;65745;50.278;18.192;2023-04-03T10:57:41;100530.10;;;9.92;44.05
76794;BME280;65745;50.278;18.192;2023-04-03T11:00:20;100525.55;;;10.48;43.10
76794;BME280;65745;50.278;18.192;2023-04-03T11:02:56;100525.22;;;10.54;42.12
76794;BME280;65745;50.278;18.192;2023-04-03T11:05:34;100530.61;;;10.08;40.24
76794;BME280;65745;50.278;18.192;2023-04-03T11:08:14;100535.35;;;9.63;41.21
76794;BME280;65745;50.278;18.192;2023-04-03T11:10:51;100534.38;;;9.60;41.34
76794;BME280;65745;50.278;18.192;2023-04-03T11:13:29;100531.15;;;10.03;42.08
76794;BME280;65745;50.278;18.192;2023-04-03T11:16:06;100522.11;;;10.55;41.99
76794;BME280;65745;50.278;18.192;2023-04-03T11:18:42;100524.97;;;10.46;40.77
76794;BME280;65745;50.278;18.192;2023-04-03T11:21:19;100524.75;;;9.97;41.09
76794;BME280;65745;50.278;18.192;2023-04-03T11:23:54;100523.74;;;9.26;39.91
76794;BME280;65745;50.278;18.192;2023-04-03T11:26:32;100528.42;;;9.13;41.61
76794;BME280;65745;50.278;18.192;2023-04-03T11:29:09;100521.39;;;9.68;40.80
76794;BME280;65745;50.278;18.192;2023-04-03T11:32:29;100519.41;;;9.86;41.28
76794;BME280;65745;50.278;18.192;2023-04-03T11:35:08;100519.05;;;9.45;41.16
76794;BME280;65745;50.278;18.192;2023-04-03T11:37:44;100520.59;;;9.19;41.58
76794;BME280;65745;50.278;18.192;2023-04-03T11:40:25;100519.12;;;9.27;41.86
76794;BME280;65745;50.278;18.192;2023-04-03T11:43:06;100519.52;;;9.73;42.03
76794;BME280;65745;50.278;18.192;2023-04-03T11:45:51;100511.50;;;10.45;41.78
76794;BME280;65745;50.278;18.192;2023-04-03T11:48:50;100513.98;;;10.59;40.11
76794;BME280;65745;50.278;18.192;2023-04-03T11:51:52;100514.15;;;10.25;39.39
76794;BME280;65745;50.278;18.192;2023-04-03T11:54:45;100514.27;;;9.76;38.97
76794;BME280;65745;50.278;18.192;2023-04-03T11:57:50;100514.73;;;9.80;39.50
76794;BME280;65745;50.278;18.192;2023-04-03T12:00:52;100511.65;;;9.55;39.75
76794;BME280;65745;50.278;18.192;2023-04-03T12:06:54;100515.80;;;8.91;41.39
76794;BME280;65745;50.278;18.192;2023-04-03T12:12:38;100511.20;;;10.09;41.57
76794;BME280;65745;50.278;18.192;2023-04-03T12:19:01;100505.67;;;10.58;40.56
76794;BME280;65745;50.278;18.192;2023-04-03T12:22:07;100495.95;;;12.04;38.80
76794;BME280;65745;50.278;18.192;2023-04-03T12:24:41;100494.94;;;12.99;36.54
76794;BME280;65745;50.278;18.192;2023-04-03T12:27:36;100493.11;;;12.61;36.26
76794;BME280;65745;50.278;18.192;2023-04-03T12:30:25;100497.50;;;12.89;36.13
76794;BME280;65745;50.278;18.192;2023-04-03T12:33:20;100490.40;;;12.88;36.67
76794;BME280;65745;50.278;18.192;2023-04-03T12:36:08;100494.22;;;12.26;35.38
76794;BME280;65745;50.278;18.192;2023-04-03T12:39:05;100500.32;;;11.44;36.17
76794;BME280;65745;50.278;18.192;2023-04-03T12:41:50;100492.10;;;12.56;34.50
76794;BME280;65745;50.278;18.192;2023-04-03T12:44:46;100484.06;;;14.20;33.51
76794;BME280;65745;50.278;18.192;2023-04-03T12:47:25;100482.88;;;13.38;33.42
76794;BME280;65745;50.278;18.192;2023-04-03T12:49:59;100485.04;;;13.64;33.24
76794;BME280;65745;50.278;18.192;2023-04-03T12:52:37;100478.63;;;14.78;31.71
76794;BME280;65745;50.278;18.192;2023-04-03T12:55:19;100484.98;;;14.13;32.53
76794;BME280;65745;50.278;18.192;2023-04-03T12:57:52;100482.85;;;13.01;33.84
76794;BME280;65745;50.278;18.192;2023-04-03T13:00:29;100492.34;;;11.76;33.75
76794;BME280;65745;50.278;18.192;2023-04-03T13:03:05;100486.10;;;11.48;34.91
76794;BME280;65745;50.278;18.192;2023-04-03T13:05:38;100478.67;;;11.96;33.74
76794;BME280;65745;50.278;18.192;2023-04-03T13:08:14;100480.90;;;12.92;32.56
76794;BME280;65745;50.278;18.192;2023-04-03T13:10:53;100470.40;;;14.34;30.42
76794;BME280;65745;50.278;18.192;2023-04-03T13:13:27;100482.35;;;12.93;31.60
76794;BME280;65745;50.278;18.192;2023-04-03T13:15:59;100487.55;;;11.91;33.64
76794;BME280;65745;50.278;18.192;2023-04-03T13:18:40;100483.77;;;12.03;32.88
76794;BME280;65745;50.278;18.192;2023-04-03T13:21:17;100476.72;;;14.16;31.61
76794;BME280;65745;50.278;18.192;2023-04-03T13:23:54;100476.56;;;12.97;31.74
76794;BME280;65745;50.278;18.192;2023-04-03T13:26:44;100481.79;;;11.75;33.07
76794;BME280;65745;50.278;18.192;2023-04-03T13:29:26;100478.27;;;12.34;33.06
76794;BME280;65745;50.278;18.192;2023-04-03T13:32:02;100471.73;;;12.24;32.67
76794;BME280;65745;50.278;18.192;2023-04-03T13:34:40;100480.67;;;11.18;33.14
76794;BME280;65745;50.278;18.192;2023-04-03T13:37:25;100480.42;;;10.43;34.73
76794;BME280;65745;50.278;18.192;2023-04-03T13:40:09;100480.35;;;9.86;35.66
76794;BME280;65745;50.278;18.192;2023-04-03T13:42:43;100475.94;;;10.83;35.00
76794;BME280;65745;50.278;18.192;2023-04-03T13:45:21;100477.60;;;14.10;31.56